createdAt,value
2023-03-03T00:01:50.346Z,8.70
2023-03-03T00:06:45.838Z,8.70
2023-03-03T00:14:21.807Z,8.60
2023-03-03T00:19:20.091Z,8.50
2023-03-03T00:21:49.976Z,8.50
2023-03-03T00:26:49.091Z,8.50
2023-03-03T00:29:33.463Z,8.50
2023-03-03T00:32:16.515Z,8.40
2023-03-03T00:34:44.712Z,8.40
2023-03-03T00:37:31.195Z,8.30
2023-03-03T00:40:18.869Z,8.40
2023-03-03T00:42:52.256Z,11.00
2023-03-03T00:45:41.170Z,8.30
2023-03-03T00:48:24.965Z,8.30
2023-03-03T00:50:54.347Z,8.20
2023-03-03T00:53:23.589Z,8.20
2023-03-03T00:55:52.585Z,8.20
2023-03-03T00:58:21.741Z,8.20
2023-03-03T01:00:53.999Z,8.10
2023-03-03T01:03:26.838Z,8.10
2023-03-03T01:05:54.657Z,8.00
2023-03-03T01:11:11.618Z,8.00
2023-03-03T01:13:41.656Z,7.90
2023-03-03T01:16:10.325Z,7.90
2023-03-03T01:18:37.977Z,7.70
2023-03-03T01:25:59.894Z,7.70
2023-03-03T01:30:54.312Z,7.60
2023-03-03T01:33:21.449Z,7.60
2023-03-03T01:35:48.612Z,7.60
2023-03-03T01:38:16.590Z,7.50
2023-03-03T01:43:15.397Z,7.50
2023-03-03T01:45:48.052Z,7.40
2023-03-03T01:50:48.941Z,7.30
2023-03-03T01:53:27.393Z,7.30
2023-03-03T01:58:28.087Z,7.20
2023-03-03T02:01:02.023Z,7.10
2023-03-03T02:03:30.150Z,7.10
2023-03-03T02:06:03.592Z,7.00
2023-03-03T02:08:52.440Z,7.00
2023-03-03T02:11:21.131Z,7.00
2023-03-03T02:13:47.979Z,7.00
2023-03-03T02:16:15.346Z,6.90
2023-03-03T02:18:42.334Z,6.90
2023-03-03T02:21:17.836Z,6.90
2023-03-03T02:24:00.387Z,6.80
2023-03-03T02:26:29.941Z,6.90
2023-03-03T02:29:01.988Z,6.80
2023-03-03T02:31:31.753Z,6.80
2023-03-03T02:34:00.189Z,6.80
2023-03-03T02:36:33.964Z,6.80
2023-03-03T02:39:21.006Z,6.70
2023-03-03T02:42:06.706Z,6.70
2023-03-03T02:44:40.241Z,6.70
2023-03-03T02:47:07.417Z,6.70
2023-03-03T02:49:36.100Z,6.70
2023-03-03T02:52:07.118Z,6.70
2023-03-03T02:54:34.595Z,6.70
2023-03-03T02:57:03.542Z,6.60
2023-03-03T02:59:31.105Z,6.70
2023-03-03T03:02:05.530Z,6.70
2023-03-03T03:04:32.367Z,6.70
2023-03-03T03:07:00.310Z,6.70
2023-03-03T03:14:26.190Z,6.60
2023-03-03T03:16:54.634Z,6.70
2023-03-03T03:19:21.432Z,6.60
2023-03-03T03:21:48.430Z,6.60
2023-03-03T03:24:16.065Z,6.60
2023-03-03T03:26:47.899Z,6.60
2023-03-03T03:34:10.917Z,6.60
2023-03-03T03:41:38.738Z,6.60
2023-03-03T03:44:06.233Z,6.60
2023-03-03T03:49:00.717Z,6.50
2023-03-03T03:53:55.288Z,6.50
2023-03-03T03:58:53.075Z,6.60
2023-03-03T04:01:20.017Z,6.50
2023-03-03T04:03:49.690Z,6.50
2023-03-03T04:06:19.827Z,6.50
2023-03-03T04:08:47.390Z,6.50
2023-03-03T04:11:15.766Z,6.50
2023-03-03T04:13:42.949Z,6.50
2023-03-03T04:16:10.386Z,6.50
2023-03-03T04:18:39.823Z,6.50
2023-03-03T04:21:06.776Z,6.50
2023-03-03T04:23:34.058Z,6.50
2023-03-03T04:28:29.828Z,6.40
2023-03-03T04:48:13.206Z,6.30
2023-03-03T04:50:42.371Z,6.30
2023-03-03T04:53:09.732Z,6.30
2023-03-03T04:55:37.969Z,6.20
2023-03-03T05:00:33.652Z,6.20
2023-03-03T05:05:29.235Z,6.20
2023-03-03T05:10:23.350Z,6.20
2023-03-03T05:20:13.795Z,6.20
2023-03-03T05:25:10.641Z,6.20
2023-03-03T05:27:37.510Z,6.20
2023-03-03T05:32:32.501Z,6.20
2023-03-03T05:37:26.789Z,6.10
2023-03-03T05:47:16.554Z,6.10
2023-03-03T05:52:10.938Z,6.10
2023-03-03T05:54:37.995Z,6.10
2023-03-03T05:59:32.476Z,6.10
2023-03-03T06:06:54.202Z,6.00
2023-03-03T06:09:21.209Z,6.00
2023-03-03T06:14:15.441Z,6.00
2023-03-03T06:19:09.675Z,6.00
2023-03-03T06:21:36.502Z,5.90
2023-03-03T06:26:31.934Z,5.90
2023-03-03T06:31:27.185Z,5.90
2023-03-03T06:33:54.533Z,5.90
2023-03-03T06:36:21.780Z,5.90
2023-03-03T06:41:16.042Z,5.90
2023-03-03T06:43:43.265Z,5.90
2023-03-03T06:46:10.160Z,5.90
2023-03-03T06:51:15.514Z,5.90
2023-03-03T06:56:10.119Z,5.80
2023-03-03T07:01:15.977Z,5.80
2023-03-03T07:06:28.408Z,5.80
2023-03-03T07:08:57.606Z,5.80
2023-03-03T07:11:24.605Z,5.80
2023-03-03T07:13:54.990Z,5.80
2023-03-03T07:16:27.930Z,5.80
2023-03-03T07:23:51.687Z,5.90
2023-03-03T07:26:26.459Z,5.90
2023-03-03T07:29:18.478Z,5.90
2023-03-03T07:31:49.934Z,5.90
2023-03-03T07:39:36.876Z,5.90
2023-03-03T07:42:36.895Z,6.00
2023-03-03T07:45:32.510Z,6.00
2023-03-03T07:48:31.003Z,6.10
2023-03-03T07:51:26.929Z,6.10
2023-03-03T07:54:51.264Z,6.10
2023-03-03T07:59:52.515Z,6.30
2023-03-03T08:02:35.363Z,6.30
2023-03-03T08:07:35.635Z,6.40
2023-03-03T08:10:08.020Z,6.50
2023-03-03T08:12:48.022Z,6.50
2023-03-03T08:15:20.047Z,6.50
2023-03-03T08:17:47.816Z,6.60
2023-03-03T08:20:43.086Z,6.70
2023-03-03T08:23:10.097Z,6.80
2023-03-03T08:25:37.088Z,6.80
2023-03-03T08:28:04.067Z,6.90
2023-03-03T08:32:59.216Z,7.00
2023-03-03T08:35:25.977Z,3.70
2023-03-03T08:37:52.907Z,7.10
2023-03-03T08:42:47.211Z,7.20
2023-03-03T08:45:14.088Z,7.30
2023-03-03T08:47:41.993Z,7.30
2023-03-03T08:50:09.646Z,3.30
2023-03-03T08:52:37.183Z,7.40
2023-03-03T08:55:04.804Z,7.40
2023-03-03T08:57:31.968Z,7.40
2023-03-03T08:59:58.796Z,7.40
2023-03-03T09:02:25.569Z,7.40
2023-03-03T09:04:52.654Z,7.40
2023-03-03T09:07:19.934Z,7.40
2023-03-03T09:09:47.207Z,7.50
2023-03-03T09:12:22.617Z,3.50
2023-03-03T09:14:51.665Z,7.60
2023-03-03T09:17:27.753Z,7.60
2023-03-03T09:19:57.891Z,7.70
2023-03-03T09:22:26.478Z,7.70
2023-03-03T09:25:00.165Z,7.70
2023-03-03T09:27:34.299Z,7.80
2023-03-03T09:30:30.358Z,7.90
2023-03-03T09:32:58.683Z,7.90
2023-03-03T09:35:28.318Z,8.80
2023-03-03T09:37:55.134Z,8.00
2023-03-03T09:40:58.596Z,10.20
2023-03-03T09:43:34.801Z,8.00
2023-03-03T09:46:10.736Z,8.00
2023-03-03T09:49:20.458Z,8.00
2023-03-03T09:51:59.243Z,7.90
2023-03-03T09:54:26.174Z,7.90
2023-03-03T09:58:01.202Z,11.20
2023-03-03T10:00:41.159Z,7.90
2023-03-03T10:03:27.447Z,7.90
2023-03-03T10:06:11.314Z,7.90
2023-03-03T10:09:16.169Z,7.90
2023-03-03T10:12:13.602Z,7.90
2023-03-03T10:14:47.334Z,7.90
2023-03-03T10:17:48.597Z,7.90
2023-03-03T10:20:26.263Z,7.80
2023-03-03T10:22:54.777Z,7.90
2023-03-03T10:25:49.439Z,8.00
2023-03-03T10:28:19.222Z,8.00
2023-03-03T10:31:12.142Z,8.00
2023-03-03T10:33:54.795Z,8.10
2023-03-03T10:36:38.449Z,8.10
2023-03-03T10:39:36.545Z,8.10
2023-03-03T10:42:22.412Z,8.20
2023-03-03T10:44:58.860Z,8.50
2023-03-03T10:47:40.818Z,8.30
2023-03-03T10:50:20.581Z,8.30
2023-03-03T10:52:51.081Z,10.50
2023-03-03T10:55:50.339Z,8.30
2023-03-03T10:58:47.614Z,10.90
2023-03-03T11:01:22.316Z,8.60
2023-03-03T11:03:53.502Z,8.70
2023-03-03T11:06:55.098Z,10.50
2023-03-03T11:09:32.991Z,8.80
2023-03-03T11:12:28.509Z,8.90
2023-03-03T11:15:23.012Z,9.00
2023-03-03T11:18:25.624Z,9.10
2023-03-03T11:21:20.820Z,9.20
2023-03-03T11:24:02.454Z,9.30
2023-03-03T11:26:41.524Z,9.40
2023-03-03T11:29:23.952Z,9.40
2023-03-03T11:32:22.352Z,9.50
2023-03-03T11:35:08.062Z,9.60
2023-03-03T11:37:46.065Z,9.70
2023-03-03T11:40:27.740Z,9.70
2023-03-03T11:43:33.949Z,13.30
2023-03-03T11:46:26.513Z,9.90
2023-03-03T11:48:58.529Z,10.00
2023-03-03T11:51:47.887Z,12.70
2023-03-03T11:54:23.947Z,10.10
2023-03-03T11:56:52.570Z,10.20
2023-03-03T11:59:54.809Z,10.20
2023-03-03T12:02:44.045Z,10.30
2023-03-03T12:05:22.283Z,10.50
2023-03-03T12:08:07.290Z,7.90
2023-03-03T12:10:45.912Z,10.50
2023-03-03T12:13:27.196Z,10.60
2023-03-03T12:16:25.138Z,10.70
2023-03-03T12:18:57.859Z,10.80
2023-03-03T12:21:33.636Z,10.80
2023-03-03T12:24:25.521Z,10.90
2023-03-03T12:26:59.785Z,11.10
2023-03-03T12:29:32.418Z,11.10
2023-03-03T12:32:14.725Z,11.20
2023-03-03T12:34:50.668Z,11.30
2023-03-03T12:37:42.140Z,11.80
2023-03-03T12:40:19.138Z,11.40
2023-03-03T12:42:58.908Z,11.50
2023-03-03T12:45:35.233Z,11.60
2023-03-03T12:48:16.906Z,11.70
2023-03-03T12:51:18.913Z,11.80
2023-03-03T12:54:13.517Z,12.00
2023-03-03T12:56:46.364Z,14.40
2023-03-03T12:59:43.142Z,12.30
2023-03-03T13:02:39.949Z,12.50
2023-03-03T13:05:54.838Z,12.80
2023-03-03T13:08:34.325Z,13.10
2023-03-03T13:11:11.140Z,13.30
2023-03-03T13:13:46.810Z,13.50
2023-03-03T13:16:26.376Z,13.80
2023-03-03T13:19:09.746Z,14.00
2023-03-03T13:21:49.544Z,14.30
2023-03-03T13:24:24.990Z,14.50
2023-03-03T13:27:13.110Z,14.70
2023-03-03T13:29:56.762Z,14.90
2023-03-03T13:32:49.845Z,15.10
2023-03-03T13:35:25.637Z,15.30
2023-03-03T13:37:57.836Z,15.50
2023-03-03T13:40:27.952Z,15.70
2023-03-03T13:43:13.854Z,15.90
2023-03-03T13:46:00.343Z,16.10
2023-03-03T13:48:46.177Z,16.30
2023-03-03T13:51:34.209Z,16.50
2023-03-03T13:54:19.232Z,16.60
2023-03-03T13:57:04.219Z,16.80
2023-03-03T13:59:42.974Z,17.00
2023-03-03T14:02:40.814Z,17.20
2023-03-03T14:05:18.622Z,17.40
2023-03-03T14:07:59.162Z,17.60
2023-03-03T14:10:41.752Z,17.80
2023-03-03T14:13:15.806Z,18.00
2023-03-03T14:15:58.331Z,18.30
2023-03-03T14:18:46.126Z,18.50
2023-03-03T14:21:20.814Z,18.70
2023-03-03T14:23:57.302Z,18.80
2023-03-03T14:26:24.190Z,19.00
2023-03-03T14:28:53.037Z,19.00
2023-03-03T14:31:39.170Z,19.10
2023-03-03T14:34:15.086Z,19.10
2023-03-03T14:36:43.287Z,19.20
2023-03-03T14:39:35.051Z,19.30
2023-03-03T14:42:07.091Z,19.40
2023-03-03T14:44:49.540Z,19.30
2023-03-03T14:47:27.637Z,19.40
2023-03-03T14:49:59.926Z,19.30
2023-03-03T14:52:29.445Z,19.40
2023-03-03T14:55:05.191Z,19.40
2023-03-03T14:57:48.692Z,19.40
2023-03-03T15:00:16.728Z,19.50
2023-03-03T15:02:49.362Z,19.50
2023-03-03T15:05:28.062Z,19.50
2023-03-03T15:08:03.555Z,19.60
2023-03-03T15:10:39.958Z,19.70
2023-03-03T15:13:22.291Z,19.70
2023-03-03T15:16:02.657Z,19.70
2023-03-03T15:18:32.720Z,19.80
2023-03-03T15:21:10.438Z,19.80
2023-03-03T15:23:55.974Z,19.80
2023-03-03T15:26:52.791Z,19.80
2023-03-03T15:29:26.234Z,19.70
2023-03-03T15:32:13.930Z,19.70
2023-03-03T15:34:44.446Z,19.70
2023-03-03T15:37:33.097Z,19.70
2023-03-03T15:40:26.108Z,19.70
2023-03-03T15:43:32.136Z,19.80
2023-03-03T15:46:36.693Z,19.80
2023-03-03T15:49:03.658Z,19.80
2023-03-03T15:51:40.543Z,19.70
2023-03-03T15:54:26.976Z,19.80
2023-03-03T15:57:19.109Z,19.80
2023-03-03T16:00:24.268Z,19.80
2023-03-03T16:02:58.414Z,19.70
2023-03-03T16:05:46.610Z,19.60
2023-03-03T16:08:19.022Z,19.90
2023-03-03T16:11:07.628Z,19.30
2023-03-03T16:14:01.859Z,19.20
2023-03-03T16:16:56.959Z,19.00
2023-03-03T16:19:49.216Z,18.80
2023-03-03T16:22:42.809Z,18.50
2023-03-03T16:25:28.038Z,18.40
2023-03-03T16:27:57.532Z,18.30
2023-03-03T16:30:30.869Z,18.00
2023-03-03T16:33:19.589Z,17.80
2023-03-03T16:36:06.162Z,17.60
2023-03-03T16:38:40.045Z,17.40
2023-03-03T16:41:19.483Z,17.10
2023-03-03T16:44:20.751Z,16.90
2023-03-03T16:46:51.068Z,16.70
2023-03-03T16:49:30.082Z,16.60
2023-03-03T16:52:02.309Z,16.30
2023-03-03T16:54:46.436Z,16.20
2023-03-03T16:57:37.721Z,16.00
2023-03-03T17:00:12.716Z,15.70
2023-03-03T17:03:03.798Z,15.50
2023-03-03T17:05:51.997Z,15.30
2023-03-03T17:08:34.483Z,15.30
2023-03-03T17:11:20.211Z,14.90
2023-03-03T17:14:08.221Z,14.70
2023-03-03T17:16:56.366Z,14.60
2023-03-03T17:19:43.989Z,14.40
2023-03-03T17:22:19.614Z,14.20
2023-03-03T17:25:04.339Z,14.10
2023-03-03T17:27:38.361Z,14.10
2023-03-03T17:30:14.138Z,14.80
2023-03-03T17:32:40.942Z,13.80
2023-03-03T17:35:19.473Z,13.70
2023-03-03T17:38:04.356Z,13.60
2023-03-03T17:40:37.184Z,13.50
2023-03-03T17:43:17.072Z,13.30
2023-03-03T17:45:47.113Z,13.20
2023-03-03T17:48:54.252Z,14.00
2023-03-03T17:51:24.103Z,13.00
2023-03-03T17:54:19.391Z,12.80
2023-03-03T17:56:52.422Z,12.70
2023-03-03T17:59:50.581Z,12.60
2023-03-03T18:02:45.709Z,12.60
2023-03-03T18:05:18.765Z,12.40
2023-03-03T18:08:10.405Z,12.30
2023-03-03T18:11:08.198Z,12.20
2023-03-03T18:13:35.100Z,12.00
2023-03-03T18:16:19.811Z,12.00
2023-03-03T18:18:46.622Z,11.90
2023-03-03T18:21:22.295Z,13.60
2023-03-03T18:23:50.060Z,11.60
2023-03-03T18:26:38.712Z,13.60
2023-03-03T18:29:17.624Z,11.40
2023-03-03T18:32:17.324Z,11.40
2023-03-03T18:34:44.293Z,11.20
2023-03-03T18:37:31.319Z,11.20
2023-03-03T18:40:04.248Z,11.10
2023-03-03T18:42:45.463Z,11.30
2023-03-03T18:45:32.203Z,10.80
2023-03-03T18:48:07.897Z,13.20
2023-03-03T18:50:37.688Z,10.70
2023-03-03T18:53:26.040Z,10.70
2023-03-03T18:55:56.526Z,10.60
2023-03-03T18:58:44.542Z,12.40
2023-03-03T19:01:11.337Z,10.40
2023-03-03T19:04:00.895Z,10.40
2023-03-03T19:06:36.704Z,10.30
2023-03-03T19:09:05.786Z,10.20
2023-03-03T19:11:44.887Z,10.20
2023-03-03T19:14:30.879Z,10.00
2023-03-03T19:17:17.351Z,9.90
2023-03-03T19:20:02.179Z,10.00
2023-03-03T19:22:31.251Z,9.90
2023-03-03T19:25:19.416Z,9.80
2023-03-03T19:27:55.406Z,9.70
2023-03-03T19:30:25.433Z,9.80
2023-03-03T19:33:35.822Z,9.60
2023-03-03T19:36:22.871Z,9.60
2023-03-03T19:39:11.806Z,9.50
2023-03-03T19:41:43.732Z,9.50
2023-03-03T19:44:29.650Z,9.40
2023-03-03T19:46:58.615Z,9.40
2023-03-03T19:49:54.006Z,9.40
2023-03-03T19:52:33.058Z,9.30
2023-03-03T19:55:23.619Z,9.30
2023-03-03T19:57:58.902Z,9.30
2023-03-03T20:00:43.326Z,9.20
2023-03-03T20:03:31.480Z,9.20
2023-03-03T20:06:34.705Z,9.10
2023-03-03T20:09:18.104Z,9.10
2023-03-03T20:12:10.773Z,9.00
2023-03-03T20:14:49.218Z,9.00
2023-03-03T20:17:30.681Z,9.00
2023-03-03T20:20:35.413Z,8.90
2023-03-03T20:23:05.488Z,8.90
2023-03-03T20:25:47.509Z,8.90
2023-03-03T20:28:39.328Z,8.80
2023-03-03T20:31:15.313Z,8.80
2023-03-03T20:36:44.286Z,8.80
2023-03-03T20:39:47.430Z,8.80
2023-03-03T20:42:34.530Z,8.70
2023-03-03T20:45:19.832Z,8.70
2023-03-03T20:48:09.379Z,8.70
2023-03-03T20:50:58.505Z,8.70
2023-03-03T20:53:39.385Z,8.60
2023-03-03T20:56:16.308Z,8.60
2023-03-03T20:58:56.095Z,8.60
2023-03-03T21:01:49.309Z,8.50
2023-03-03T21:04:23.887Z,8.50
2023-03-03T21:09:28.610Z,8.40
2023-03-03T21:11:57.207Z,8.40
2023-03-03T21:14:35.787Z,8.40
2023-03-03T21:17:28.480Z,8.30
2023-03-03T21:24:59.292Z,8.20
2023-03-03T21:27:33.474Z,8.10
2023-03-03T21:30:05.870Z,8.10
2023-03-03T21:32:42.057Z,8.10
2023-03-03T21:35:11.975Z,8.00
2023-03-03T21:37:51.137Z,8.00
2023-03-03T21:40:25.340Z,7.90
2023-03-03T21:42:54.197Z,7.90
2023-03-03T21:45:21.513Z,7.80
2023-03-03T21:50:16.714Z,7.80
2023-03-03T21:57:38.034Z,7.70
2023-03-03T22:00:06.805Z,7.70
2023-03-03T22:02:35.087Z,7.60
2023-03-03T22:05:03.729Z,7.60
2023-03-03T22:07:30.646Z,9.80
2023-03-03T22:09:57.402Z,7.50
2023-03-03T22:12:24.277Z,7.50
2023-03-03T22:14:51.171Z,7.50
2023-03-03T22:17:18.068Z,7.40
2023-03-03T22:19:44.849Z,7.40
2023-03-03T22:24:38.973Z,7.40
2023-03-03T22:27:07.577Z,7.40
2023-03-03T22:29:34.395Z,7.30
2023-03-03T22:32:01.266Z,7.40
2023-03-03T22:34:28.761Z,8.20
2023-03-03T22:36:55.610Z,7.30
2023-03-03T22:41:49.627Z,7.30
2023-03-03T22:44:16.753Z,7.30
2023-03-03T22:46:43.541Z,7.20
2023-03-03T22:49:10.321Z,7.20
2023-03-03T22:51:37.119Z,7.20
2023-03-03T22:54:05.071Z,9.10
2023-03-03T22:56:31.924Z,7.10
2023-03-03T22:58:58.703Z,7.10
2023-03-03T23:01:25.504Z,7.00
2023-03-03T23:03:52.339Z,7.00
2023-03-03T23:06:19.137Z,7.00
2023-03-03T23:08:46.031Z,7.00
2023-03-03T23:11:12.870Z,6.90
2023-03-03T23:13:39.689Z,6.90
2023-03-03T23:16:06.797Z,6.90
2023-03-03T23:18:33.679Z,6.90
2023-03-03T23:21:00.425Z,6.80
2023-03-03T23:23:27.344Z,6.80
2023-03-03T23:28:21.617Z,6.70
2023-03-03T23:30:49.208Z,6.70
2023-03-03T23:33:16.634Z,6.70
2023-03-03T23:35:45.461Z,6.70
2023-03-03T23:38:15.424Z,6.60
2023-03-03T23:40:42.480Z,6.60
2023-03-03T23:43:09.309Z,6.50
2023-03-03T23:45:36.237Z,6.50
2023-03-03T23:52:59.954Z,6.40
2023-03-03T23:55:26.813Z,6.40
2023-03-03T23:57:53.598Z,6.40
